sensor_id;sensor_type;location;lat;lon;timestamp;P1;durP1;ratioP1;P2;durP2;ratioP2
57889;SDS011;43707;50.184;18.966;2023-02-28T00:00:46;0.70;;;0.40;;
57889;SDS011;43707;50.184;18.966;2023-02-28T00:03:11;1.40;;;0.50;;
57889;SDS011;43707;50.184;18.966;2023-02-28T00:05:36;0.90;;;0.50;;
57889;SDS011;43707;50.184;18.966;2023-02-28T00:08:02;1.10;;;0.60;;
57889;SDS011;43707;50.184;18.966;2023-02-28T00:10:28;1.10;;;0.60;;
57889;SDS011;43707;50.184;18.966;2023-02-28T00:12:56;1.80;;;0.80;;
57889;SDS011;43707;50.184;18.966;2023-02-28T00:15:25;0.70;;;0.50;;
57889;SDS011;43707;50.184;18.966;2023-02-28T00:17:50;0.50;;;0.40;;
57889;SDS011;43707;50.184;18.966;2023-02-28T00:20:16;0.90;;;0.50;;
57889;SDS011;43707;50.184;18.966;2023-02-28T00:22:43;0.50;;;0.40;;
57889;SDS011;43707;50.184;18.966;2023-02-28T00:25:10;0.60;;;0.40;;
57889;SDS011;43707;50.184;18.966;2023-02-28T00:27:38;0.60;;;0.50;;
57889;SDS011;43707;50.184;18.966;2023-02-28T00:30:04;1.00;;;0.50;;
57889;SDS011;43707;50.184;18.966;2023-02-28T00:32:30;0.40;;;0.30;;
57889;SDS011;43707;50.184;18.966;2023-02-28T00:34:56;0.50;;;0.30;;
57889;SDS011;43707;50.184;18.966;2023-02-28T00:37:21;0.70;;;0.40;;
57889;SDS011;43707;50.184;18.966;2023-02-28T00:39:47;0.60;;;0.40;;
57889;SDS011;43707;50.184;18.966;2023-02-28T00:42:12;0.40;;;0.30;;
57889;SDS011;43707;50.184;18.966;2023-02-28T00:44:37;0.90;;;0.30;;
57889;SDS011;43707;50.184;18.966;2023-02-28T00:47:03;0.70;;;0.40;;
57889;SDS011;43707;50.184;18.966;2023-02-28T00:49:28;0.40;;;0.30;;
57889;SDS011;43707;50.184;18.966;2023-02-28T00:51:54;0.20;;;0.20;;
57889;SDS011;43707;50.184;18.966;2023-02-28T00:54:20;0.60;;;0.40;;
57889;SDS011;43707;50.184;18.966;2023-02-28T00:56:47;0.30;;;0.20;;
57889;SDS011;43707;50.184;18.966;2023-02-28T00:59:14;0.60;;;0.30;;
57889;SDS011;43707;50.184;18.966;2023-02-28T01:01:40;0.70;;;0.40;;
57889;SDS011;43707;50.184;18.966;2023-02-28T01:04:06;0.30;;;0.30;;
57889;SDS011;43707;50.184;18.966;2023-02-28T01:06:31;0.70;;;0.40;;
57889;SDS011;43707;50.184;18.966;2023-02-28T01:08:57;0.70;;;0.30;;
57889;SDS011;43707;50.184;18.966;2023-02-28T01:11:23;0.50;;;0.30;;
57889;SDS011;43707;50.184;18.966;2023-02-28T01:13:49;0.30;;;0.20;;
57889;SDS011;43707;50.184;18.966;2023-02-28T01:16:15;0.50;;;0.40;;
57889;SDS011;43707;50.184;18.966;2023-02-28T01:18:40;0.40;;;0.30;;
57889;SDS011;43707;50.184;18.966;2023-02-28T01:21:06;0.60;;;0.30;;
57889;SDS011;43707;50.184;18.966;2023-02-28T01:23:35;0.40;;;0.40;;
57889;SDS011;43707;50.184;18.966;2023-02-28T01:26:05;1.00;;;0.40;;
57889;SDS011;43707;50.184;18.966;2023-02-28T01:28:31;0.20;;;0.20;;
57889;SDS011;43707;50.184;18.966;2023-02-28T01:30:56;0.40;;;0.30;;
57889;SDS011;43707;50.184;18.966;2023-02-28T01:33:22;0.30;;;0.30;;
57889;SDS011;43707;50.184;18.966;2023-02-28T01:35:47;0.70;;;0.40;;
57889;SDS011;43707;50.184;18.966;2023-02-28T01:38:13;0.80;;;0.30;;
57889;SDS011;43707;50.184;18.966;2023-02-28T01:40:40;0.30;;;0.30;;
57889;SDS011;43707;50.184;18.966;2023-02-28T01:43:10;1.00;;;0.40;;
57889;SDS011;43707;50.184;18.966;2023-02-28T01:45:46;1.20;;;0.40;;
57889;SDS011;43707;50.184;18.966;2023-02-28T01:48:11;2.30;;;0.40;;
57889;SDS011;43707;50.184;18.966;2023-02-28T01:50:39;2.20;;;0.40;;
57889;SDS011;43707;50.184;18.966;2023-02-28T01:53:07;1.20;;;0.50;;
57889;SDS011;43707;50.184;18.966;2023-02-28T01:55:36;0.80;;;0.40;;
57889;SDS011;43707;50.184;18.966;2023-02-28T01:58:02;0.60;;;0.40;;
57889;SDS011;43707;50.184;18.966;2023-02-28T02:00:30;0.30;;;0.30;;
57889;SDS011;43707;50.184;18.966;2023-02-28T02:02:57;0.50;;;0.30;;
57889;SDS011;43707;50.184;18.966;2023-02-28T02:05:25;0.40;;;0.30;;
57889;SDS011;43707;50.184;18.966;2023-02-28T02:08:12;0.90;;;0.50;;
57889;SDS011;43707;50.184;18.966;2023-02-28T02:10:56;1.30;;;0.50;;
57889;SDS011;43707;50.184;18.966;2023-02-28T02:38:27;1.10;;;0.50;;
57889;SDS011;43707;50.184;18.966;2023-02-28T02:41:11;0.50;;;0.40;;
57889;SDS011;43707;50.184;18.966;2023-02-28T02:43:46;0.70;;;0.50;;
57889;SDS011;43707;50.184;18.966;2023-02-28T02:46:14;0.30;;;0.30;;
57889;SDS011;43707;50.184;18.966;2023-02-28T02:48:41;0.40;;;0.30;;
57889;SDS011;43707;50.184;18.966;2023-02-28T02:51:09;0.60;;;0.30;;
57889;SDS011;43707;50.184;18.966;2023-02-28T02:53:38;0.60;;;0.30;;
57889;SDS011;43707;50.184;18.966;2023-02-28T02:56:16;0.40;;;0.30;;
57889;SDS011;43707;50.184;18.966;2023-02-28T02:58:44;0.70;;;0.50;;
57889;SDS011;43707;50.184;18.966;2023-02-28T03:01:11;0.60;;;0.30;;
57889;SDS011;43707;50.184;18.966;2023-02-28T03:03:39;0.90;;;0.70;;
57889;SDS011;43707;50.184;18.966;2023-02-28T03:06:05;0.70;;;0.20;;
57889;SDS011;43707;50.184;18.966;2023-02-28T03:08:34;1.00;;;0.40;;
57889;SDS011;43707;50.184;18.966;2023-02-28T03:11:02;0.40;;;0.40;;
57889;SDS011;43707;50.184;18.966;2023-02-28T03:16:34;0.60;;;0.50;;
57889;SDS011;43707;50.184;18.966;2023-02-28T03:19:23;0.40;;;0.40;;
57889;SDS011;43707;50.184;18.966;2023-02-28T03:25:14;2.60;;;0.90;;
57889;SDS011;43707;50.184;18.966;2023-02-28T03:30:14;0.40;;;0.40;;
57889;SDS011;43707;50.184;18.966;2023-02-28T03:33:21;0.40;;;0.30;;
57889;SDS011;43707;50.184;18.966;2023-02-28T03:35:53;0.90;;;0.30;;
57889;SDS011;43707;50.184;18.966;2023-02-28T03:38:29;0.90;;;0.40;;
57889;SDS011;43707;50.184;18.966;2023-02-28T03:41:01;0.90;;;0.50;;
57889;SDS011;43707;50.184;18.966;2023-02-28T03:43:31;0.70;;;0.40;;
57889;SDS011;43707;50.184;18.966;2023-02-28T03:46:00;0.70;;;0.40;;
57889;SDS011;43707;50.184;18.966;2023-02-28T03:48:30;0.70;;;0.50;;
57889;SDS011;43707;50.184;18.966;2023-02-28T03:50:59;0.60;;;0.50;;
57889;SDS011;43707;50.184;18.966;2023-02-28T03:53:27;0.70;;;0.60;;
57889;SDS011;43707;50.184;18.966;2023-02-28T03:55:57;0.60;;;0.40;;
57889;SDS011;43707;50.184;18.966;2023-02-28T03:58:33;0.40;;;0.40;;
57889;SDS011;43707;50.184;18.966;2023-02-28T04:01:05;1.20;;;0.70;;
57889;SDS011;43707;50.184;18.966;2023-02-28T04:03:36;0.90;;;0.50;;
57889;SDS011;43707;50.184;18.966;2023-02-28T04:06:03;0.70;;;0.50;;
57889;SDS011;43707;50.184;18.966;2023-02-28T04:08:29;0.40;;;0.40;;
57889;SDS011;43707;50.184;18.966;2023-02-28T04:11:01;0.90;;;0.40;;
57889;SDS011;43707;50.184;18.966;2023-02-28T04:13:31;1.30;;;0.60;;
57889;SDS011;43707;50.184;18.966;2023-02-28T04:15:56;0.80;;;0.50;;
57889;SDS011;43707;50.184;18.966;2023-02-28T04:18:21;0.70;;;0.50;;
57889;SDS011;43707;50.184;18.966;2023-02-28T04:20:47;0.80;;;0.50;;
57889;SDS011;43707;50.184;18.966;2023-02-28T04:23:12;1.00;;;0.70;;
57889;SDS011;43707;50.184;18.966;2023-02-28T04:25:37;0.80;;;0.50;;
57889;SDS011;43707;50.184;18.966;2023-02-28T04:28:05;0.90;;;0.60;;
57889;SDS011;43707;50.184;18.966;2023-02-28T04:30:31;1.20;;;0.80;;
57889;SDS011;43707;50.184;18.966;2023-02-28T04:32:57;0.80;;;0.70;;
57889;SDS011;43707;50.184;18.966;2023-02-28T04:35:23;0.90;;;0.60;;
57889;SDS011;43707;50.184;18.966;2023-02-28T04:37:48;1.20;;;0.80;;
57889;SDS011;43707;50.184;18.966;2023-02-28T04:40:14;3.00;;;0.80;;
57889;SDS011;43707;50.184;18.966;2023-02-28T04:42:39;1.10;;;0.60;;
57889;SDS011;43707;50.184;18.966;2023-02-28T04:45:05;6.40;;;0.60;;
57889;SDS011;43707;50.184;18.966;2023-02-28T04:47:31;0.60;;;0.40;;
57889;SDS011;43707;50.184;18.966;2023-02-28T04:49:57;0.70;;;0.50;;
57889;SDS011;43707;50.184;18.966;2023-02-28T04:52:23;3.60;;;0.80;;
57889;SDS011;43707;50.184;18.966;2023-02-28T04:54:48;0.80;;;0.60;;
57889;SDS011;43707;50.184;18.966;2023-02-28T04:57:14;0.90;;;0.40;;
57889;SDS011;43707;50.184;18.966;2023-02-28T04:59:39;4.20;;;0.50;;
57889;SDS011;43707;50.184;18.966;2023-02-28T05:02:05;0.80;;;0.40;;
57889;SDS011;43707;50.184;18.966;2023-02-28T05:04:35;1.00;;;0.60;;
57889;SDS011;43707;50.184;18.966;2023-02-28T05:07:01;1.00;;;0.50;;
57889;SDS011;43707;50.184;18.966;2023-02-28T05:09:28;1.10;;;0.50;;
57889;SDS011;43707;50.184;18.966;2023-02-28T05:11:53;0.90;;;0.60;;
57889;SDS011;43707;50.184;18.966;2023-02-28T05:14:19;0.70;;;0.50;;
57889;SDS011;43707;50.184;18.966;2023-02-28T05:16:44;0.90;;;0.60;;
57889;SDS011;43707;50.184;18.966;2023-02-28T05:19:10;0.70;;;0.50;;
57889;SDS011;43707;50.184;18.966;2023-02-28T05:21:36;1.10;;;0.50;;
57889;SDS011;43707;50.184;18.966;2023-02-28T05:24:09;0.70;;;0.60;;
57889;SDS011;43707;50.184;18.966;2023-02-28T05:26:37;0.80;;;0.60;;
57889;SDS011;43707;50.184;18.966;2023-02-28T05:29:04;0.60;;;0.40;;
57889;SDS011;43707;50.184;18.966;2023-02-28T05:31:30;1.10;;;0.70;;
57889;SDS011;43707;50.184;18.966;2023-02-28T05:33:55;0.70;;;0.50;;
57889;SDS011;43707;50.184;18.966;2023-02-28T05:36:20;0.70;;;0.50;;
57889;SDS011;43707;50.184;18.966;2023-02-28T05:38:47;0.80;;;0.50;;
57889;SDS011;43707;50.184;18.966;2023-02-28T05:41:13;0.80;;;0.50;;
57889;SDS011;43707;50.184;18.966;2023-02-28T05:43:38;1.50;;;0.60;;
57889;SDS011;43707;50.184;18.966;2023-02-28T05:46:05;0.50;;;0.50;;
57889;SDS011;43707;50.184;18.966;2023-02-28T05:48:31;0.80;;;0.60;;
57889;SDS011;43707;50.184;18.966;2023-02-28T05:50:57;0.60;;;0.50;;
57889;SDS011;43707;50.184;18.966;2023-02-28T05:53:23;0.80;;;0.50;;
57889;SDS011;43707;50.184;18.966;2023-02-28T05:55:48;0.80;;;0.60;;
57889;SDS011;43707;50.184;18.966;2023-02-28T05:58:13;0.60;;;0.40;;
57889;SDS011;43707;50.184;18.966;2023-02-28T06:00:39;0.50;;;0.40;;
57889;SDS011;43707;50.184;18.966;2023-02-28T06:03:04;1.10;;;0.70;;
57889;SDS011;43707;50.184;18.966;2023-02-28T06:05:29;1.60;;;0.60;;
57889;SDS011;43707;50.184;18.966;2023-02-28T06:07:55;1.20;;;0.70;;
57889;SDS011;43707;50.184;18.966;2023-02-28T06:10:20;0.90;;;0.70;;
57889;SDS011;43707;50.184;18.966;2023-02-28T06:12:45;0.70;;;0.40;;
57889;SDS011;43707;50.184;18.966;2023-02-28T06:15:14;0.70;;;0.60;;
57889;SDS011;43707;50.184;18.966;2023-02-28T06:17:42;0.90;;;0.60;;
57889;SDS011;43707;50.184;18.966;2023-02-28T06:20:08;0.70;;;0.60;;
57889;SDS011;43707;50.184;18.966;2023-02-28T06:22:36;1.70;;;0.80;;
57889;SDS011;43707;50.184;18.966;2023-02-28T06:25:02;0.70;;;0.50;;
57889;SDS011;43707;50.184;18.966;2023-02-28T06:27:28;1.20;;;0.80;;
57889;SDS011;43707;50.184;18.966;2023-02-28T06:29:55;4.50;;;1.40;;
57889;SDS011;43707;50.184;18.966;2023-02-28T06:32:21;2.90;;;1.20;;
57889;SDS011;43707;50.184;18.966;2023-02-28T06:34:47;0.70;;;0.60;;
57889;SDS011;43707;50.184;18.966;2023-02-28T06:37:12;1.70;;;0.80;;
57889;SDS011;43707;50.184;18.966;2023-02-28T06:39:37;1.10;;;1.00;;
57889;SDS011;43707;50.184;18.966;2023-02-28T06:42:03;1.20;;;0.90;;
57889;SDS011;43707;50.184;18.966;2023-02-28T06:44:28;0.60;;;0.60;;
57889;SDS011;43707;50.184;18.966;2023-02-28T06:47:00;1.00;;;0.80;;
57889;SDS011;43707;50.184;18.966;2023-02-28T06:49:27;2.00;;;1.00;;
57889;SDS011;43707;50.184;18.966;2023-02-28T06:51:53;8.00;;;0.90;;
57889;SDS011;43707;50.184;18.966;2023-02-28T06:54:19;1.30;;;1.10;;
57889;SDS011;43707;50.184;18.966;2023-02-28T06:56:44;1.10;;;0.80;;
57889;SDS011;43707;50.184;18.966;2023-02-28T06:59:09;2.50;;;0.70;;
57889;SDS011;43707;50.184;18.966;2023-02-28T07:01:35;0.90;;;0.70;;
57889;SDS011;43707;50.184;18.966;2023-02-28T07:04:00;0.80;;;0.60;;
57889;SDS011;43707;50.184;18.966;2023-02-28T07:06:26;1.00;;;0.70;;
57889;SDS011;43707;50.184;18.966;2023-02-28T07:08:52;0.70;;;0.60;;
57889;SDS011;43707;50.184;18.966;2023-02-28T07:11:18;1.40;;;0.70;;
57889;SDS011;43707;50.184;18.966;2023-02-28T07:13:44;1.30;;;0.80;;
57889;SDS011;43707;50.184;18.966;2023-02-28T07:16:11;32.70;;;3.00;;
57889;SDS011;43707;50.184;18.966;2023-02-28T07:18:37;2.60;;;0.90;;
57889;SDS011;43707;50.184;18.966;2023-02-28T07:21:04;1.90;;;1.00;;
57889;SDS011;43707;50.184;18.966;2023-02-28T07:23:31;1.50;;;0.90;;
57889;SDS011;43707;50.184;18.966;2023-02-28T07:25:56;1.00;;;0.80;;
57889;SDS011;43707;50.184;18.966;2023-02-28T07:28:22;1.60;;;0.80;;
57889;SDS011;43707;50.184;18.966;2023-02-28T07:30:47;0.80;;;0.70;;
57889;SDS011;43707;50.184;18.966;2023-02-28T07:33:13;1.30;;;0.80;;
57889;SDS011;43707;50.184;18.966;2023-02-28T07:35:38;1.60;;;0.80;;
57889;SDS011;43707;50.184;18.966;2023-02-28T07:38:04;1.10;;;0.80;;
57889;SDS011;43707;50.184;18.966;2023-02-28T07:40:29;1.00;;;0.80;;
57889;SDS011;43707;50.184;18.966;2023-02-28T07:42:55;0.90;;;0.70;;
57889;SDS011;43707;50.184;18.966;2023-02-28T07:45:21;2.00;;;0.80;;
57889;SDS011;43707;50.184;18.966;2023-02-28T07:47:46;1.60;;;0.90;;
57889;SDS011;43707;50.184;18.966;2023-02-28T07:50:12;3.40;;;1.00;;
57889;SDS011;43707;50.184;18.966;2023-02-28T07:52:39;2.60;;;0.70;;
57889;SDS011;43707;50.184;18.966;2023-02-28T07:55:06;0.90;;;0.60;;
57889;SDS011;43707;50.184;18.966;2023-02-28T07:57:32;0.80;;;0.70;;
57889;SDS011;43707;50.184;18.966;2023-02-28T07:59:58;2.00;;;0.90;;
57889;SDS011;43707;50.184;18.966;2023-02-28T08:02:23;2.10;;;0.80;;
57889;SDS011;43707;50.184;18.966;2023-02-28T08:04:49;2.00;;;0.80;;
57889;SDS011;43707;50.184;18.966;2023-02-28T08:07:14;0.70;;;0.60;;
57889;SDS011;43707;50.184;18.966;2023-02-28T08:09:41;2.00;;;0.90;;
57889;SDS011;43707;50.184;18.966;2023-02-28T08:12:07;1.50;;;0.80;;
57889;SDS011;43707;50.184;18.966;2023-02-28T08:14:33;1.00;;;0.70;;
57889;SDS011;43707;50.184;18.966;2023-02-28T08:16:59;1.20;;;0.70;;
57889;SDS011;43707;50.184;18.966;2023-02-28T08:19:24;2.50;;;0.80;;
57889;SDS011;43707;50.184;18.966;2023-02-28T08:21:49;0.90;;;0.80;;
57889;SDS011;43707;50.184;18.966;2023-02-28T08:24:15;3.10;;;0.90;;
57889;SDS011;43707;50.184;18.966;2023-02-28T08:26:40;1.40;;;0.80;;
57889;SDS011;43707;50.184;18.966;2023-02-28T08:29:06;2.70;;;0.80;;
57889;SDS011;43707;50.184;18.966;2023-02-28T08:31:31;1.00;;;0.80;;
57889;SDS011;43707;50.184;18.966;2023-02-28T08:33:57;1.60;;;0.80;;
57889;SDS011;43707;50.184;18.966;2023-02-28T08:36:24;1.50;;;0.80;;
57889;SDS011;43707;50.184;18.966;2023-02-28T08:38:51;0.90;;;0.70;;
57889;SDS011;43707;50.184;18.966;2023-02-28T08:41:16;1.40;;;0.80;;
57889;SDS011;43707;50.184;18.966;2023-02-28T08:43:42;1.50;;;0.70;;
57889;SDS011;43707;50.184;18.966;2023-02-28T08:46:08;1.70;;;0.60;;
57889;SDS011;43707;50.184;18.966;2023-02-28T08:48:36;0.90;;;0.70;;
57889;SDS011;43707;50.184;18.966;2023-02-28T08:51:08;0.80;;;0.60;;
57889;SDS011;43707;50.184;18.966;2023-02-28T08:53:36;1.20;;;0.70;;
57889;SDS011;43707;50.184;18.966;2023-02-28T08:56:03;2.30;;;0.80;;
57889;SDS011;43707;50.184;18.966;2023-02-28T08:58:30;1.10;;;0.90;;
57889;SDS011;43707;50.184;18.966;2023-02-28T09:00:56;0.80;;;0.50;;
57889;SDS011;43707;50.184;18.966;2023-02-28T09:03:22;2.00;;;0.80;;
57889;SDS011;43707;50.184;18.966;2023-02-28T09:06:06;1.40;;;0.60;;
57889;SDS011;43707;50.184;18.966;2023-02-28T09:08:31;0.70;;;0.40;;
57889;SDS011;43707;50.184;18.966;2023-02-28T09:10:57;0.60;;;0.50;;
57889;SDS011;43707;50.184;18.966;2023-02-28T09:13:26;1.30;;;0.60;;
57889;SDS011;43707;50.184;18.966;2023-02-28T09:15:52;0.90;;;0.40;;
57889;SDS011;43707;50.184;18.966;2023-02-28T09:18:17;1.00;;;0.60;;
57889;SDS011;43707;50.184;18.966;2023-02-28T09:20:43;1.10;;;0.90;;
57889;SDS011;43707;50.184;18.966;2023-02-28T09:23:09;1.50;;;0.80;;
57889;SDS011;43707;50.184;18.966;2023-02-28T09:25:36;6.60;;;0.60;;
57889;SDS011;43707;50.184;18.966;2023-02-28T09:28:02;1.10;;;0.60;;
57889;SDS011;43707;50.184;18.966;2023-02-28T09:30:28;2.00;;;0.90;;
57889;SDS011;43707;50.184;18.966;2023-02-28T09:32:54;0.50;;;0.50;;
57889;SDS011;43707;50.184;18.966;2023-02-28T09:35:20;0.90;;;0.60;;
57889;SDS011;43707;50.184;18.966;2023-02-28T09:37:50;0.80;;;0.50;;
57889;SDS011;43707;50.184;18.966;2023-02-28T09:40:20;0.80;;;0.50;;
57889;SDS011;43707;50.184;18.966;2023-02-28T09:42:48;0.60;;;0.40;;
57889;SDS011;43707;50.184;18.966;2023-02-28T09:45:24;0.70;;;0.50;;
57889;SDS011;43707;50.184;18.966;2023-02-28T09:47:54;0.90;;;0.60;;
57889;SDS011;43707;50.184;18.966;2023-02-28T09:52:53;0.60;;;0.50;;
57889;SDS011;43707;50.184;18.966;2023-02-28T09:57:51;0.70;;;0.50;;
57889;SDS011;43707;50.184;18.966;2023-02-28T10:05:27;0.50;;;0.40;;
57889;SDS011;43707;50.184;18.966;2023-02-28T10:08:14;0.80;;;0.50;;
57889;SDS011;43707;50.184;18.966;2023-02-28T10:13:14;1.90;;;0.60;;
57889;SDS011;43707;50.184;18.966;2023-02-28T10:15:42;0.80;;;0.40;;
57889;SDS011;43707;50.184;18.966;2023-02-28T10:18:11;0.50;;;0.30;;
57889;SDS011;43707;50.184;18.966;2023-02-28T10:20:40;0.60;;;0.50;;
57889;SDS011;43707;50.184;18.966;2023-02-28T10:28:37;1.80;;;0.30;;
57889;SDS011;43707;50.184;18.966;2023-02-28T10:31:02;0.70;;;0.40;;
57889;SDS011;43707;50.184;18.966;2023-02-28T10:33:29;0.60;;;0.50;;
57889;SDS011;43707;50.184;18.966;2023-02-28T10:36:02;1.10;;;0.40;;
57889;SDS011;43707;50.184;18.966;2023-02-28T10:38:35;4.60;;;0.50;;
57889;SDS011;43707;50.184;18.966;2023-02-28T10:43:31;0.60;;;0.40;;
57889;SDS011;43707;50.184;18.966;2023-02-28T10:48:44;1.20;;;0.60;;
57889;SDS011;43707;50.184;18.966;2023-02-28T10:51:25;0.50;;;0.50;;
57889;SDS011;43707;50.184;18.966;2023-02-28T10:54:03;0.30;;;0.30;;
57889;SDS011;43707;50.184;18.966;2023-02-28T10:56:29;0.60;;;0.30;;
57889;SDS011;43707;50.184;18.966;2023-02-28T11:03:55;1.20;;;0.40;;
57889;SDS011;43707;50.184;18.966;2023-02-28T11:06:23;0.60;;;0.50;;
57889;SDS011;43707;50.184;18.966;2023-02-28T11:11:24;0.90;;;0.60;;
57889;SDS011;43707;50.184;18.966;2023-02-28T11:13:58;0.70;;;0.40;;
57889;SDS011;43707;50.184;18.966;2023-02-28T11:16:36;0.60;;;0.40;;
57889;SDS011;43707;50.184;18.966;2023-02-28T11:19:03;0.80;;;0.50;;
57889;SDS011;43707;50.184;18.966;2023-02-28T11:21:31;0.80;;;0.60;;
57889;SDS011;43707;50.184;18.966;2023-02-28T11:26:51;0.50;;;0.50;;
57889;SDS011;43707;50.184;18.966;2023-02-28T11:29:19;0.70;;;0.50;;
57889;SDS011;43707;50.184;18.966;2023-02-28T11:32:04;0.80;;;0.60;;
57889;SDS011;43707;50.184;18.966;2023-02-28T11:34:31;0.70;;;0.60;;
57889;SDS011;43707;50.184;18.966;2023-02-28T11:36:57;0.60;;;0.50;;
57889;SDS011;43707;50.184;18.966;2023-02-28T11:39:24;0.70;;;0.60;;
57889;SDS011;43707;50.184;18.966;2023-02-28T11:55:21;0.50;;;0.50;;
57889;SDS011;43707;50.184;18.966;2023-02-28T11:58:25;0.60;;;0.60;;
57889;SDS011;43707;50.184;18.966;2023-02-28T12:01:09;0.50;;;0.50;;
57889;SDS011;43707;50.184;18.966;2023-02-28T12:08:49;0.60;;;0.50;;
57889;SDS011;43707;50.184;18.966;2023-02-28T12:22:14;0.90;;;0.50;;
57889;SDS011;43707;50.184;18.966;2023-02-28T12:27:41;1.00;;;0.50;;
57889;SDS011;43707;50.184;18.966;2023-02-28T12:30:19;0.60;;;0.50;;
57889;SDS011;43707;50.184;18.966;2023-02-28T12:32:48;1.10;;;0.60;;
57889;SDS011;43707;50.184;18.966;2023-02-28T12:35:19;1.10;;;0.50;;
57889;SDS011;43707;50.184;18.966;2023-02-28T12:40:22;0.70;;;0.60;;
57889;SDS011;43707;50.184;18.966;2023-02-28T12:42:56;0.60;;;0.50;;
57889;SDS011;43707;50.184;18.966;2023-02-28T12:45:25;0.80;;;0.60;;
57889;SDS011;43707;50.184;18.966;2023-02-28T12:47:58;0.70;;;0.60;;
57889;SDS011;43707;50.184;18.966;2023-02-28T12:50:26;0.70;;;0.60;;
57889;SDS011;43707;50.184;18.966;2023-02-28T12:55:35;0.60;;;0.50;;
57889;SDS011;43707;50.184;18.966;2023-02-28T12:58:14;1.10;;;0.70;;
57889;SDS011;43707;50.184;18.966;2023-02-28T13:09:39;2.10;;;0.60;;
57889;SDS011;43707;50.184;18.966;2023-02-28T13:12:14;0.80;;;0.80;;
57889;SDS011;43707;50.184;18.966;2023-02-28T13:14:40;0.70;;;0.60;;
57889;SDS011;43707;50.184;18.966;2023-02-28T13:27:33;2.30;;;0.70;;
57889;SDS011;43707;50.184;18.966;2023-02-28T13:30:00;1.30;;;0.80;;
57889;SDS011;43707;50.184;18.966;2023-02-28T13:32:36;1.70;;;0.60;;
57889;SDS011;43707;50.184;18.966;2023-02-28T13:39:55;1.00;;;0.70;;
57889;SDS011;43707;50.184;18.966;2023-02-28T13:42:36;1.00;;;0.70;;
57889;SDS011;43707;50.184;18.966;2023-02-28T13:45:24;0.70;;;0.50;;
57889;SDS011;43707;50.184;18.966;2023-02-28T13:47:52;1.00;;;0.70;;
57889;SDS011;43707;50.184;18.966;2023-02-28T14:06:41;0.80;;;0.60;;
57889;SDS011;43707;50.184;18.966;2023-02-28T14:12:27;0.70;;;0.60;;
57889;SDS011;43707;50.184;18.966;2023-02-28T14:15:02;0.60;;;0.60;;
57889;SDS011;43707;50.184;18.966;2023-02-28T14:17:28;7.60;;;0.60;;
57889;SDS011;43707;50.184;18.966;2023-02-28T14:19:54;1.10;;;0.80;;
57889;SDS011;43707;50.184;18.966;2023-02-28T14:33:19;1.20;;;0.60;;
57889;SDS011;43707;50.184;18.966;2023-02-28T14:38:35;1.10;;;0.80;;
57889;SDS011;43707;50.184;18.966;2023-02-28T14:41:04;1.00;;;0.50;;
57889;SDS011;43707;50.184;18.966;2023-02-28T14:43:36;0.70;;;0.50;;
57889;SDS011;43707;50.184;18.966;2023-02-28T14:46:22;1.00;;;0.60;;
57889;SDS011;43707;50.184;18.966;2023-02-28T14:48:49;0.90;;;0.60;;
57889;SDS011;43707;50.184;18.966;2023-02-28T14:51:18;0.70;;;0.50;;
57889;SDS011;43707;50.184;18.966;2023-02-28T14:53:48;0.70;;;0.60;;
57889;SDS011;43707;50.184;18.966;2023-02-28T14:56:19;0.50;;;0.50;;
57889;SDS011;43707;50.184;18.966;2023-02-28T14:58:51;1.00;;;0.90;;
57889;SDS011;43707;50.184;18.966;2023-02-28T15:01:19;1.80;;;0.80;;
57889;SDS011;43707;50.184;18.966;2023-02-28T15:03:46;1.00;;;0.70;;
57889;SDS011;43707;50.184;18.966;2023-02-28T15:06:14;1.30;;;0.80;;
57889;SDS011;43707;50.184;18.966;2023-02-28T15:08:41;0.60;;;0.60;;
57889;SDS011;43707;50.184;18.966;2023-02-28T15:11:07;0.60;;;0.40;;
57889;SDS011;43707;50.184;18.966;2023-02-28T15:13:38;0.80;;;0.60;;
57889;SDS011;43707;50.184;18.966;2023-02-28T15:16:13;1.00;;;0.90;;
57889;SDS011;43707;50.184;18.966;2023-02-28T15:21:19;0.90;;;0.70;;
57889;SDS011;43707;50.184;18.966;2023-02-28T15:23:55;0.60;;;0.60;;
57889;SDS011;43707;50.184;18.966;2023-02-28T15:26:24;0.80;;;0.70;;
57889;SDS011;43707;50.184;18.966;2023-02-28T15:28:57;0.80;;;0.60;;
57889;SDS011;43707;50.184;18.966;2023-02-28T15:31:29;0.80;;;0.70;;
57889;SDS011;43707;50.184;18.966;2023-02-28T15:33:58;1.00;;;0.80;;
57889;SDS011;43707;50.184;18.966;2023-02-28T15:36:31;1.00;;;0.80;;
57889;SDS011;43707;50.184;18.966;2023-02-28T15:38:59;1.30;;;0.80;;
57889;SDS011;43707;50.184;18.966;2023-02-28T15:41:26;1.50;;;1.00;;
57889;SDS011;43707;50.184;18.966;2023-02-28T15:46:45;1.20;;;0.80;;
57889;SDS011;43707;50.184;18.966;2023-02-28T15:49:21;1.10;;;0.70;;
57889;SDS011;43707;50.184;18.966;2023-02-28T15:51:47;0.90;;;0.70;;
57889;SDS011;43707;50.184;18.966;2023-02-28T15:54:15;1.30;;;0.90;;
57889;SDS011;43707;50.184;18.966;2023-02-28T15:56:46;1.10;;;0.80;;
57889;SDS011;43707;50.184;18.966;2023-02-28T15:59:19;1.00;;;0.70;;
57889;SDS011;43707;50.184;18.966;2023-02-28T16:01:45;0.80;;;0.70;;
57889;SDS011;43707;50.184;18.966;2023-02-28T16:04:18;1.10;;;0.60;;
57889;SDS011;43707;50.184;18.966;2023-02-28T16:06:45;1.10;;;0.70;;
57889;SDS011;43707;50.184;18.966;2023-02-28T16:09:22;1.90;;;0.60;;
57889;SDS011;43707;50.184;18.966;2023-02-28T16:11:48;0.80;;;0.80;;
57889;SDS011;43707;50.184;18.966;2023-02-28T16:14:17;0.90;;;0.70;;
57889;SDS011;43707;50.184;18.966;2023-02-28T16:16:45;1.00;;;0.70;;
57889;SDS011;43707;50.184;18.966;2023-02-28T16:19:12;0.70;;;0.50;;
57889;SDS011;43707;50.184;18.966;2023-02-28T16:21:37;0.50;;;0.50;;
57889;SDS011;43707;50.184;18.966;2023-02-28T16:24:03;0.90;;;0.70;;
57889;SDS011;43707;50.184;18.966;2023-02-28T16:26:28;2.00;;;0.90;;
57889;SDS011;43707;50.184;18.966;2023-02-28T16:28:53;0.90;;;0.90;;
57889;SDS011;43707;50.184;18.966;2023-02-28T16:31:19;1.50;;;0.90;;
57889;SDS011;43707;50.184;18.966;2023-02-28T16:33:46;1.60;;;1.10;;
57889;SDS011;43707;50.184;18.966;2023-02-28T16:36:15;1.00;;;0.90;;
57889;SDS011;43707;50.184;18.966;2023-02-28T16:38:42;1.10;;;0.90;;
57889;SDS011;43707;50.184;18.966;2023-02-28T16:41:07;1.80;;;1.20;;
57889;SDS011;43707;50.184;18.966;2023-02-28T16:43:41;1.70;;;1.30;;
57889;SDS011;43707;50.184;18.966;2023-02-28T16:46:08;2.40;;;1.50;;
57889;SDS011;43707;50.184;18.966;2023-02-28T16:48:36;3.00;;;1.90;;
57889;SDS011;43707;50.184;18.966;2023-02-28T16:51:02;2.30;;;1.80;;
57889;SDS011;43707;50.184;18.966;2023-02-28T16:53:29;2.50;;;1.60;;
57889;SDS011;43707;50.184;18.966;2023-02-28T16:55:55;1.50;;;1.30;;
57889;SDS011;43707;50.184;18.966;2023-02-28T16:58:20;1.60;;;1.40;;
57889;SDS011;43707;50.184;18.966;2023-02-28T17:00:48;2.10;;;1.50;;
57889;SDS011;43707;50.184;18.966;2023-02-28T17:03:23;2.80;;;1.90;;
57889;SDS011;43707;50.184;18.966;2023-02-28T17:05:51;2.70;;;2.00;;
57889;SDS011;43707;50.184;18.966;2023-02-28T17:08:16;2.50;;;2.10;;
57889;SDS011;43707;50.184;18.966;2023-02-28T17:10:44;2.50;;;2.10;;
57889;SDS011;43707;50.184;18.966;2023-02-28T17:13:09;3.30;;;2.30;;
57889;SDS011;43707;50.184;18.966;2023-02-28T17:15:35;3.70;;;2.20;;
57889;SDS011;43707;50.184;18.966;2023-02-28T17:18:01;2.40;;;1.70;;
57889;SDS011;43707;50.184;18.966;2023-02-28T17:20:27;3.70;;;1.80;;
57889;SDS011;43707;50.184;18.966;2023-02-28T17:22:53;2.90;;;2.00;;
57889;SDS011;43707;50.184;18.966;2023-02-28T17:25:19;3.00;;;2.30;;
57889;SDS011;43707;50.184;18.966;2023-02-28T17:27:45;2.40;;;1.50;;